createdAt,value
2024-02-22T00:04:27.642Z,90.27
2024-02-22T00:09:31.138Z,90.26
2024-02-22T00:14:35.775Z,90.24
2024-02-22T00:19:39.146Z,90.25
2024-02-22T00:24:42.413Z,90.21
2024-02-22T00:29:45.619Z,90.20
2024-02-22T00:34:48.921Z,90.18
2024-02-22T00:39:52.147Z,90.26
2024-02-22T00:44:55.352Z,90.36
2024-02-22T00:49:59.116Z,90.36
2024-02-22T00:55:02.298Z,90.35
2024-02-22T01:00:08.014Z,90.36
2024-02-22T01:05:11.334Z,90.36
2024-02-22T01:10:14.688Z,90.38
2024-02-22T01:15:18.217Z,90.39
2024-02-22T01:20:21.467Z,90.40
2024-02-22T01:25:24.633Z,90.38
2024-02-22T01:30:27.738Z,90.32
2024-02-22T01:35:30.750Z,90.27
2024-02-22T01:40:33.903Z,90.37
2024-02-22T01:45:37.741Z,90.44
2024-02-22T01:50:42.586Z,90.55
2024-02-22T01:55:46.452Z,90.61
2024-02-22T02:00:49.801Z,90.68
2024-02-22T02:05:53.585Z,90.72
2024-02-22T02:10:56.875Z,90.75
2024-02-22T02:16:00.020Z,90.78
2024-02-22T02:21:03.152Z,90.76
2024-02-22T02:26:07.193Z,90.74
2024-02-22T02:31:10.377Z,90.73
2024-02-22T02:36:13.488Z,90.72
2024-02-22T02:41:16.936Z,90.76
2024-02-22T02:46:20.105Z,90.76
2024-02-22T02:51:23.231Z,90.77
2024-02-22T02:56:26.316Z,90.74
2024-02-22T03:01:29.729Z,90.73
2024-02-22T03:06:33.052Z,90.75
2024-02-22T03:11:36.755Z,90.76
2024-02-22T03:16:40.178Z,90.70
2024-02-22T03:21:43.302Z,90.66
2024-02-22T03:26:47.726Z,90.65
2024-02-22T03:31:50.897Z,90.66
2024-02-22T03:36:54.008Z,90.63
2024-02-22T03:41:57.376Z,90.60
2024-02-22T03:47:00.532Z,90.54
2024-02-22T03:52:04.489Z,90.48
2024-02-22T03:57:07.626Z,90.45
2024-02-22T04:02:10.768Z,90.39
2024-02-22T04:07:14.767Z,90.29
2024-02-22T04:12:18.079Z,90.18
2024-02-22T04:17:21.316Z,89.81
2024-02-22T04:22:25.584Z,89.81
2024-02-22T04:27:28.722Z,90.01
2024-02-22T04:32:31.782Z,90.32
2024-02-22T04:37:35.289Z,90.58
2024-02-22T04:42:39.566Z,90.79
2024-02-22T04:47:42.731Z,91.06
2024-02-22T04:52:46.072Z,90.94
2024-02-22T04:57:49.962Z,90.78
2024-02-22T05:02:53.262Z,90.76
2024-02-22T05:07:56.517Z,91.02
2024-02-22T05:12:59.582Z,91.21
2024-02-22T05:18:05.807Z,91.28
2024-02-22T05:23:09.239Z,91.60
2024-02-22T05:28:12.511Z,91.92
2024-02-22T05:33:15.788Z,92.07
2024-02-22T05:38:19.099Z,92.27
2024-02-22T05:43:22.338Z,92.42
2024-02-22T05:48:25.632Z,92.64
2024-02-22T05:53:28.887Z,92.78
2024-02-22T05:58:32.062Z,92.84
2024-02-22T06:03:35.291Z,92.85
2024-02-22T06:08:43.695Z,92.94
2024-02-22T06:13:47.648Z,92.91
2024-02-22T06:18:51.954Z,92.72
2024-02-22T06:23:56.714Z,92.63
2024-02-22T06:28:59.844Z,92.47
2024-02-22T06:34:03.203Z,92.23
2024-02-22T06:39:06.865Z,92.05
2024-02-22T06:44:10.018Z,91.89
2024-02-22T06:49:17.078Z,91.45
2024-02-22T06:54:20.557Z,90.56
2024-02-22T06:59:23.805Z,89.45
2024-02-22T07:04:27.179Z,88.84
2024-02-22T07:09:30.444Z,87.25
2024-02-22T07:14:33.757Z,84.65
2024-02-22T07:19:37.336Z,81.05
2024-02-22T07:24:40.933Z,75.49
2024-02-22T07:29:44.435Z,73.20
2024-02-22T07:34:47.719Z,70.22
2024-02-22T07:39:51.148Z,66.68
2024-02-22T07:44:54.261Z,64.80
2024-02-22T07:49:57.293Z,61.72
2024-02-22T07:55:00.574Z,59.10
2024-02-22T08:00:04.198Z,57.83
2024-02-22T08:05:09.046Z,56.99
2024-02-22T08:10:12.255Z,57.23
2024-02-22T08:15:16.552Z,59.68
2024-02-22T08:20:19.979Z,63.28
2024-02-22T08:25:23.323Z,66.11
2024-02-22T08:30:26.431Z,68.29
2024-02-22T08:35:30.059Z,70.23
2024-02-22T08:40:39.245Z,71.72
2024-02-22T08:45:43.951Z,72.84
2024-02-22T08:50:47.185Z,74.00
2024-02-22T08:55:50.514Z,75.31
2024-02-22T09:00:53.856Z,75.98
2024-02-22T09:05:57.416Z,76.63
2024-02-22T09:11:00.790Z,76.90
2024-02-22T09:16:04.888Z,76.70
2024-02-22T09:21:08.701Z,76.44
2024-02-22T09:26:14.675Z,76.40
2024-02-22T09:31:18.806Z,76.77
2024-02-22T09:36:22.136Z,77.11
2024-02-22T09:41:26.952Z,76.85
2024-02-22T09:46:30.371Z,76.65
2024-02-22T09:51:36.589Z,76.24
2024-02-22T09:56:43.363Z,75.81
2024-02-22T10:01:46.827Z,75.67
2024-02-22T10:06:51.043Z,75.21
2024-02-22T10:11:55.009Z,74.77
2024-02-22T10:17:07.309Z,74.13
2024-02-22T10:22:10.469Z,73.80
2024-02-22T10:27:13.547Z,73.49
2024-02-22T10:32:18.885Z,72.65
2024-02-22T10:37:22.926Z,72.19
2024-02-22T10:42:27.712Z,71.92
2024-02-22T10:47:31.739Z,72.25
2024-02-22T10:52:43.937Z,72.47
2024-02-22T10:57:50.823Z,72.61
2024-02-22T11:02:54.825Z,72.22
2024-02-22T11:07:59.389Z,71.63
2024-02-22T11:13:04.634Z,70.68
2024-02-22T11:18:08.447Z,69.58
2024-02-22T11:23:16.117Z,68.85
2024-02-22T11:28:19.655Z,68.33
2024-02-22T11:33:23.976Z,67.57
2024-02-22T11:38:28.848Z,67.48
2024-02-22T11:43:32.057Z,67.63
2024-02-22T11:48:35.804Z,68.12
2024-02-22T11:53:39.214Z,68.30
2024-02-22T11:58:42.475Z,67.82
2024-02-22T12:03:47.954Z,68.34
2024-02-22T12:08:55.376Z,68.71
2024-02-22T12:14:00.632Z,68.65
2024-02-22T12:19:04.143Z,67.80
2024-02-22T12:24:07.926Z,67.50
2024-02-22T12:29:11.297Z,67.41
2024-02-22T12:34:17.872Z,67.31
2024-02-22T12:39:21.201Z,67.75
2024-02-22T12:44:25.281Z,67.78
2024-02-22T12:49:30.285Z,68.34
2024-02-22T12:54:35.106Z,68.39
2024-02-22T12:59:38.553Z,68.40
2024-02-22T13:04:41.831Z,68.81
2024-02-22T13:09:46.981Z,68.73
2024-02-22T13:14:50.267Z,68.78
2024-02-22T13:19:53.625Z,68.46
2024-02-22T13:24:56.792Z,69.33
2024-02-22T13:30:00.357Z,69.70
2024-02-22T13:35:03.971Z,70.13
2024-02-22T13:40:12.756Z,70.26
2024-02-22T13:45:19.061Z,70.31
2024-02-22T13:50:22.505Z,70.55
2024-02-22T13:55:26.409Z,70.61
2024-02-22T14:00:29.750Z,70.64
2024-02-22T14:05:33.274Z,71.11
2024-02-22T14:10:38.550Z,71.57
2024-02-22T14:15:42.150Z,72.04
2024-02-22T14:20:46.879Z,72.26
2024-02-22T14:25:50.360Z,72.66
2024-02-22T14:30:53.475Z,72.97
2024-02-22T14:35:57.310Z,73.25
2024-02-22T14:41:00.665Z,73.64
2024-02-22T14:46:04.342Z,74.21
2024-02-22T14:51:07.549Z,74.76
2024-02-22T14:56:17.188Z,75.46
2024-02-22T15:01:20.860Z,76.06
2024-02-22T15:06:24.188Z,76.75
2024-02-22T15:11:28.081Z,77.62
2024-02-22T15:16:31.799Z,78.67
2024-02-22T15:21:36.002Z,79.67
2024-02-22T15:26:42.213Z,80.82
2024-02-22T15:31:45.669Z,81.44
2024-02-22T15:36:50.189Z,81.86
2024-02-22T15:41:53.739Z,82.39
2024-02-22T15:46:57.142Z,82.96
2024-02-22T15:52:00.242Z,83.49
2024-02-22T15:57:03.886Z,84.02
2024-02-22T16:02:07.444Z,84.57
2024-02-22T16:07:13.935Z,84.79
2024-02-22T16:12:18.433Z,85.16
2024-02-22T16:17:21.758Z,85.33
2024-02-22T16:22:25.118Z,85.44
2024-02-22T16:27:28.267Z,85.64
2024-02-22T16:32:32.079Z,85.89
2024-02-22T16:37:35.667Z,85.95
2024-02-22T16:42:39.110Z,86.18
2024-02-22T16:47:46.398Z,86.63
2024-02-22T16:52:49.908Z,86.94
2024-02-22T16:57:53.032Z,86.99
2024-02-22T17:02:56.654Z,87.01
2024-02-22T17:08:00.002Z,87.46
2024-02-22T17:13:03.991Z,87.64
2024-02-22T17:18:07.480Z,87.82
2024-02-22T17:23:10.878Z,87.95
2024-02-22T17:28:17.382Z,87.99
2024-02-22T17:33:22.489Z,88.08
2024-02-22T17:38:26.461Z,88.13
2024-02-22T17:43:30.473Z,88.22
2024-02-22T17:48:34.947Z,88.28
2024-02-22T17:53:40.420Z,88.30
2024-02-22T17:58:51.485Z,88.38
2024-02-22T18:03:59.779Z,88.31
2024-02-22T18:09:03.186Z,88.27
2024-02-22T18:14:06.518Z,88.23
2024-02-22T18:19:09.755Z,88.16
2024-02-22T18:24:13.359Z,88.24
2024-02-22T18:29:17.538Z,88.27
2024-02-22T18:34:22.602Z,88.32
2024-02-22T18:39:27.482Z,88.34
2024-02-22T18:44:32.930Z,88.28
2024-02-22T18:49:36.418Z,88.25
2024-02-22T18:54:39.756Z,88.22
2024-02-22T18:59:45.704Z,88.19
2024-02-22T19:04:49.606Z,88.16
2024-02-22T19:09:53.015Z,88.14
2024-02-22T19:14:56.388Z,88.18
2024-02-22T19:19:59.812Z,88.27
2024-02-22T19:25:04.934Z,88.33
2024-02-22T19:30:08.946Z,88.28
2024-02-22T19:35:19.824Z,88.29
2024-02-22T19:40:23.496Z,88.18
2024-02-22T19:45:27.009Z,88.09
2024-02-22T19:50:30.247Z,88.09
2024-02-22T19:55:33.528Z,88.23
2024-02-22T20:00:36.771Z,88.40
2024-02-22T20:05:40.500Z,88.61
2024-02-22T20:10:45.945Z,88.87
2024-02-22T20:15:49.151Z,88.98
2024-02-22T20:20:53.996Z,89.13
2024-02-22T20:25:57.225Z,89.27
2024-02-22T20:31:00.414Z,89.36
2024-02-22T20:36:04.648Z,89.26
2024-02-22T20:41:08.088Z,89.11
2024-02-22T20:46:11.495Z,88.91
2024-02-22T20:51:14.709Z,88.71
2024-02-22T20:56:17.825Z,88.58
2024-02-22T21:01:21.280Z,88.47
2024-02-22T21:06:25.136Z,88.46
2024-02-22T21:11:28.693Z,88.45
2024-02-22T21:16:33.642Z,88.38
2024-02-22T21:21:37.048Z,88.30
2024-02-22T21:26:41.282Z,88.06
2024-02-22T21:31:44.410Z,87.92
2024-02-22T21:36:48.100Z,88.10
2024-02-22T21:41:52.458Z,88.17
2024-02-22T21:46:55.676Z,88.16
2024-02-22T21:51:59.182Z,88.05
2024-02-22T21:57:03.572Z,87.89
2024-02-22T22:02:19.269Z,87.71
2024-02-22T22:07:22.663Z,87.58
2024-02-22T22:12:29.603Z,87.39
2024-02-22T22:17:33.002Z,87.26
2024-02-22T22:22:36.313Z,87.17
2024-02-22T22:27:39.423Z,87.05
2024-02-22T22:32:42.992Z,86.97
2024-02-22T22:37:46.114Z,86.91
2024-02-22T22:42:49.414Z,86.83
2024-02-22T22:47:54.701Z,86.69
2024-02-22T22:53:03.027Z,86.52
2024-02-22T22:58:06.530Z,86.35
2024-02-22T23:03:10.925Z,86.13
2024-02-22T23:08:14.100Z,85.89
2024-02-22T23:13:17.305Z,85.61
2024-02-22T23:18:20.493Z,85.36
2024-02-22T23:23:23.745Z,85.14
2024-02-22T23:28:27.228Z,85.00
2024-02-22T23:33:30.332Z,84.88
2024-02-22T23:38:33.686Z,84.73
2024-02-22T23:43:37.680Z,84.59
2024-02-22T23:48:42.945Z,84.32
2024-02-22T23:53:46.620Z,84.15
2024-02-22T23:58:49.798Z,83.93
